This is the latest recevied weather packets stored in our database for station/object K4AMF. If no packets are shown the sender has not sent any weather packets the latest 1 day(s).
| Time | Temp. | Humidity | Pressure | Rain* | Wind** | Luminosity | Snow |
|---|---|---|---|---|---|---|---|
| 1778075081 | 24.44° C | 77% | 1018.3 hPa | 0 mm | - | 563 W/m² | - |
| 1778074172 | 23.89° C | 79% | 1018.3 hPa | 0 mm | - | 543 W/m² | - |
| 1778073263 | 23.33° C | 79% | 1018.3 hPa | 0 mm | - | 384 W/m² | - |
| 1778072960 | 22.78° C | 79% | 1018.2 hPa | 0 mm | - | 354 W/m² | - |
| 1778069632 | 21.11° C | 81% | 1017.7 hPa | 0 mm | - | 77 W/m² | - |
| 1778068724 | 20.56° C | 82% | 1017.5 hPa | 0 mm | - | 62 W/m² | - |
| 1778068422 | 20° C | 82% | 1017.6 hPa | 0 mm | - | 65 W/m² | - |
| 1778067817 | 20° C | 82% | 1017.6 hPa | 0 mm | - | 65 W/m² | - |
| 1778067213 | 19.44° C | 83% | 1017.4 hPa | 0 mm | - | 55 W/m² | - |
| 1778066304 | 18.89° C | 84% | 1017.3 hPa | 0 mm | - | 34 W/m² | - |
| 1778066002 | 18.89° C | 85% | 1017.5 hPa | 0 mm | - | 28 W/m² | - |
| 1778065396 | 18.89° C | 85% | 1017.2 hPa | 0 mm | - | 19 W/m² | - |
| 1778065093 | 18.89° C | 85% | 1017.2 hPa | 0 mm | - | 14 W/m² | - |
| 1778064487 | 18.89° C | 85% | 1017 hPa | 0 mm | - | 4 W/m² | - |
| 1778061462 | 18.89° C | 84% | 1017.1 hPa | 0 mm | - | 0 W/m² | - |
| 1778060855 | 18.89° C | 84% | 1017.1 hPa | 0 mm | - | 0 W/m² | - |
| 1778060252 | 18.89° C | 84% | 1017 hPa | 0 mm | - | 0 W/m² | - |
| 1778059344 | 19.44° C | 84% | 1016.7 hPa | 0 mm | - | 0 W/m² | - |
| 1778057830 | 19.44° C | 83% | 1016.7 hPa | 0 mm | - | 0 W/m² | - |
| 1778057526 | 19.44° C | 83% | 1016.7 hPa | 0 mm | - | 0 W/m² | - |
| 1778056919 | 19.44° C | 82% | 1016.7 hPa | 0 mm | - | 0 W/m² | - |
| 1778055705 | 20° C | 82% | 1016.8 hPa | 0 mm | - | 0 W/m² | - |
| 1778055404 | 20° C | 82% | 1016.7 hPa | 0 mm | - | 0 W/m² | - |
| 1778055101 | 20° C | 82% | 1016.5 hPa | 0 mm | - | 0 W/m² | - |
| 1778054799 | 20° C | 81% | 1016.5 hPa | 0 mm | - | 0 W/m² | - |
* Rain latest hour (hover to see other rain measurements)
** Current wind speed in m/s (hover to see current wind gust speed)